createdAt,value
2018-12-10T00:01:23.169Z,941.3
2018-12-10T00:04:29.041Z,941.4
2018-12-10T00:07:35.037Z,941.3
2018-12-10T00:10:42.941Z,941.3
2018-12-10T00:13:49.009Z,941.3
2018-12-10T00:16:54.888Z,941.3
2018-12-10T00:20:01.024Z,941.3
2018-12-10T00:23:07.009Z,941.3
2018-12-10T00:26:15.502Z,941.2
2018-12-10T00:29:21.462Z,941.1
2018-12-10T00:32:27.350Z,941.1
2018-12-10T00:35:33.430Z,941.1
2018-12-10T00:38:39.297Z,941.1
2018-12-10T00:41:45.195Z,941.1
2018-12-10T00:44:51.165Z,941.1
2018-12-10T00:47:57.023Z,941.2
2018-12-10T00:51:03.075Z,941.2
2018-12-10T00:54:09.135Z,941.2
2018-12-10T00:57:15.047Z,941.1
2018-12-10T01:00:21.167Z,941.1
2018-12-10T01:03:27.051Z,941
2018-12-10T01:06:32.970Z,941.1
2018-12-10T01:09:39.053Z,941
2018-12-10T01:12:44.997Z,941
2018-12-10T01:15:50.901Z,940.8
2018-12-10T01:18:56.917Z,940.7
2018-12-10T01:22:02.834Z,940.8
2018-12-10T01:25:08.828Z,940.7
2018-12-10T01:28:14.707Z,940.6
2018-12-10T01:31:20.645Z,940.5
2018-12-10T01:34:26.517Z,940.6
2018-12-10T01:37:32.462Z,940.6
2018-12-10T01:40:38.418Z,940.6
2018-12-10T01:43:44.378Z,940.6
2018-12-10T01:46:50.336Z,940.6
2018-12-10T01:49:56.214Z,940.6
2018-12-10T01:53:02.153Z,940.5
2018-12-10T01:56:08.176Z,940.5
2018-12-10T01:59:14.035Z,940.5
2018-12-10T02:02:20.029Z,940.5
2018-12-10T02:05:26.040Z,940.5
2018-12-10T02:08:31.989Z,940.4
2018-12-10T02:11:38.039Z,940.3
2018-12-10T02:14:43.883Z,940.2
2018-12-10T02:17:49.934Z,940.3
2018-12-10T02:20:55.813Z,940.2
2018-12-10T02:24:01.747Z,940.2
2018-12-10T02:27:07.805Z,940.1
2018-12-10T02:30:13.687Z,940.1
2018-12-10T02:33:19.728Z,940.2
2018-12-10T02:36:25.615Z,940.1
2018-12-10T02:39:31.642Z,940
2018-12-10T02:42:37.603Z,939.9
2018-12-10T02:45:43.486Z,939.9
2018-12-10T02:48:49.521Z,939.9
2018-12-10T02:51:55.638Z,940
2018-12-10T02:55:03.804Z,939.9
2018-12-10T02:58:09.678Z,939.8
2018-12-10T03:01:15.710Z,939.7
2018-12-10T03:04:21.670Z,939.6
2018-12-10T03:07:27.798Z,939.6
2018-12-10T03:10:33.693Z,939.7
2018-12-10T03:13:39.575Z,939.7
2018-12-10T03:16:45.625Z,939.7
2018-12-10T03:19:51.576Z,939.7
2018-12-10T03:22:57.528Z,939.7
2018-12-10T03:26:03.589Z,939.7
2018-12-10T03:29:09.528Z,939.6
2018-12-10T03:32:15.558Z,939.6
2018-12-10T03:35:21.463Z,939.6
2018-12-10T03:38:27.581Z,939.7
2018-12-10T03:41:33.451Z,939.8
2018-12-10T03:44:39.445Z,939.8
2018-12-10T03:47:45.509Z,939.9
2018-12-10T03:50:51.392Z,940
2018-12-10T03:53:57.430Z,940.1
2018-12-10T03:57:03.326Z,940.2
2018-12-10T04:00:09.348Z,940.2
2018-12-10T04:03:15.405Z,940.3
2018-12-10T04:06:22.391Z,940.3
2018-12-10T04:09:28.271Z,940.3
2018-12-10T04:12:34.341Z,940.3
2018-12-10T04:15:40.372Z,940.3
2018-12-10T04:18:46.282Z,940.3
2018-12-10T04:21:52.287Z,940.3
2018-12-10T04:24:58.273Z,940.3
2018-12-10T04:28:04.415Z,940.2
2018-12-10T04:31:10.370Z,940.3
2018-12-10T04:34:16.363Z,940.3
2018-12-10T04:37:22.290Z,940.3
2018-12-10T04:40:28.299Z,940.2
2018-12-10T04:43:34.310Z,940.2
2018-12-10T04:46:40.212Z,940.2
2018-12-10T04:49:46.344Z,940.3
2018-12-10T04:52:52.220Z,940.4
2018-12-10T04:55:58.201Z,940.3
2018-12-10T04:59:04.109Z,940.3
2018-12-10T05:02:09.986Z,940.2
2018-12-10T05:05:16.178Z,940.2
2018-12-10T05:08:22.063Z,940.1
2018-12-10T05:11:28.083Z,940
2018-12-10T05:14:34.010Z,939.9
2018-12-10T05:17:40.070Z,940
2018-12-10T05:20:45.951Z,940
2018-12-10T05:23:51.986Z,940
2018-12-10T05:26:58.028Z,940
2018-12-10T05:30:06.059Z,939.9
2018-12-10T05:33:12.020Z,939.9
2018-12-10T05:36:17.896Z,940
2018-12-10T05:39:24.044Z,939.9
2018-12-10T05:42:30.046Z,940
2018-12-10T05:45:38.519Z,940
2018-12-10T05:48:44.394Z,940
2018-12-10T05:51:50.334Z,940
2018-12-10T05:54:56.225Z,940.2
2018-12-10T05:58:02.259Z,940.2
2018-12-10T06:01:08.142Z,940.2
2018-12-10T06:04:14.168Z,940.2
2018-12-10T06:07:20.053Z,940.3
2018-12-10T06:10:26.004Z,940.3
2018-12-10T06:13:32.007Z,940.4
2018-12-10T06:16:37.874Z,940.4
2018-12-10T06:19:43.871Z,940.4
2018-12-10T06:22:49.932Z,940.5
2018-12-10T06:25:56.094Z,940.6
2018-12-10T06:29:02.055Z,940.5
2018-12-10T06:32:08.180Z,940.6
2018-12-10T06:35:14.122Z,940.7
2018-12-10T06:38:20.181Z,940.7
2018-12-10T06:41:26.190Z,940.8
2018-12-10T06:44:32.200Z,940.9
2018-12-10T06:47:38.212Z,940.9
2018-12-10T06:50:44.276Z,941
2018-12-10T06:53:50.202Z,941
2018-12-10T06:56:56.300Z,941.1
2018-12-10T07:00:02.313Z,941.1
2018-12-10T07:03:08.232Z,941.1
2018-12-10T07:06:14.275Z,941.2
2018-12-10T07:09:20.242Z,941.3
2018-12-10T07:12:26.196Z,941.4
2018-12-10T07:15:32.077Z,941.4
2018-12-10T07:18:38.115Z,941.5
2018-12-10T07:21:44.082Z,941.5
2018-12-10T07:24:50.159Z,941.6
2018-12-10T07:27:56.197Z,941.6
2018-12-10T07:31:03.188Z,941.7
2018-12-10T07:34:09.066Z,941.7
2018-12-10T07:37:15.314Z,941.8
2018-12-10T07:40:21.379Z,941.8
2018-12-10T07:43:28.534Z,941.9
2018-12-10T07:46:34.733Z,942
2018-12-10T07:49:40.783Z,942
2018-12-10T07:52:46.691Z,942
2018-12-10T07:55:53.151Z,942.1
2018-12-10T07:58:59.132Z,942.1
2018-12-10T08:02:05.128Z,942
2018-12-10T08:05:13.801Z,942.1
2018-12-10T08:08:20.836Z,942.1
2018-12-10T08:11:26.798Z,942.1
2018-12-10T08:14:33.446Z,942.2
2018-12-10T08:17:40.002Z,942.2
2018-12-10T08:20:46.728Z,942.2
2018-12-10T08:23:52.890Z,942.3
2018-12-10T08:26:58.845Z,942.3
2018-12-10T08:30:04.944Z,942.3
2018-12-10T08:33:10.820Z,942.3
2018-12-10T08:36:16.838Z,942.3
2018-12-10T08:39:22.891Z,942.3
2018-12-10T08:42:29.103Z,942.3
2018-12-10T08:45:35.003Z,942.3
2018-12-10T08:48:41.077Z,942.3
2018-12-10T08:51:48.268Z,942.3
2018-12-10T08:54:55.356Z,942.4
2018-12-10T08:58:04.292Z,942.4
2018-12-10T09:01:11.224Z,942.3
2018-12-10T09:04:17.429Z,942.3
2018-12-10T09:07:23.593Z,942.3
2018-12-10T09:10:30.606Z,942.3
2018-12-10T09:13:38.266Z,942.3
2018-12-10T09:16:44.638Z,942.2
2018-12-10T09:19:50.700Z,942.3
2018-12-10T09:22:56.720Z,942.2
2018-12-10T09:26:02.618Z,942.3
2018-12-10T09:29:08.656Z,942.2
2018-12-10T09:32:15.594Z,942.2
2018-12-10T09:35:21.624Z,942.2
2018-12-10T09:38:27.655Z,942.1
2018-12-10T09:41:33.873Z,942.2
2018-12-10T09:44:40.251Z,942.1
2018-12-10T09:47:47.249Z,942.1
2018-12-10T09:50:53.199Z,942.1
2018-12-10T09:53:59.235Z,942.1
2018-12-10T09:57:05.110Z,942.1
2018-12-10T10:00:11.143Z,942.2
2018-12-10T10:03:17.163Z,942.1
2018-12-10T10:06:23.202Z,942
2018-12-10T10:09:29.293Z,942.1
2018-12-10T10:12:35.243Z,942.1
2018-12-10T10:15:41.293Z,942.1
2018-12-10T10:18:47.233Z,942.1
2018-12-10T10:21:54.124Z,942.1
2018-12-10T10:25:00.147Z,942
2018-12-10T10:28:06.112Z,942
2018-12-10T10:31:12.006Z,942
2018-12-10T10:34:18.235Z,942
2018-12-10T10:37:24.297Z,942
2018-12-10T10:40:30.210Z,941.9
2018-12-10T10:43:36.321Z,941.9
2018-12-10T10:46:43.251Z,941.9
2018-12-10T10:49:49.262Z,941.9
2018-12-10T10:52:55.213Z,941.8
2018-12-10T10:56:02.311Z,941.8
2018-12-10T10:59:08.364Z,941.8
2018-12-10T11:02:14.425Z,941.7
2018-12-10T11:05:20.353Z,941.7
2018-12-10T11:08:26.343Z,941.7
2018-12-10T11:11:33.342Z,941.7
2018-12-10T11:14:39.284Z,941.7
2018-12-10T11:17:46.443Z,941.7
2018-12-10T11:20:53.836Z,941.7
2018-12-10T11:24:03.441Z,941.7
2018-12-10T11:27:10.662Z,941.7
2018-12-10T11:30:17.990Z,941.8
2018-12-10T11:33:24.006Z,941.8
2018-12-10T11:36:30.038Z,941.8
2018-12-10T11:39:37.187Z,941.9
2018-12-10T11:42:44.412Z,941.9
2018-12-10T11:45:50.859Z,941.9
2018-12-10T11:48:56.808Z,942
2018-12-10T11:52:03.000Z,941.9
2018-12-10T11:55:08.901Z,941.9
2018-12-10T11:58:15.106Z,941.9
2018-12-10T12:01:21.171Z,941.9
2018-12-10T12:04:27.135Z,941.9
2018-12-10T12:07:34.236Z,941.8
2018-12-10T12:10:41.457Z,941.9
2018-12-10T12:13:47.938Z,941.9
2018-12-10T12:16:53.940Z,941.9
2018-12-10T12:20:01.129Z,941.9
2018-12-10T12:23:07.084Z,941.8
2018-12-10T12:26:13.199Z,941.8
2018-12-10T12:29:19.129Z,941.8
2018-12-10T12:32:25.091Z,941.8
2018-12-10T12:35:31.029Z,941.8
2018-12-10T12:38:37.292Z,941.8
2018-12-10T12:41:43.237Z,941.8
2018-12-10T12:44:49.221Z,941.8
2018-12-10T12:47:55.170Z,941.7
2018-12-10T12:51:03.223Z,941.7
2018-12-10T12:54:09.234Z,941.8
2018-12-10T12:57:15.331Z,941.8
2018-12-10T13:00:28.650Z,941.8
2018-12-10T13:03:34.671Z,941.8
2018-12-10T13:06:40.571Z,941.8
2018-12-10T13:09:46.518Z,941.8
2018-12-10T13:12:52.731Z,941.8
2018-12-10T13:16:01.243Z,941.8
2018-12-10T13:19:07.252Z,941.8
2018-12-10T13:22:13.211Z,941.9
2018-12-10T13:25:19.481Z,941.9
2018-12-10T13:28:25.558Z,941.9
2018-12-10T13:31:31.531Z,941.9
2018-12-10T13:34:37.617Z,942
2018-12-10T13:37:48.189Z,941.9
2018-12-10T13:40:54.357Z,941.9
2018-12-10T13:44:03.355Z,941.9
2018-12-10T13:47:09.397Z,941.9
2018-12-10T13:50:15.451Z,941.9
2018-12-10T13:53:21.789Z,941.9
2018-12-10T13:56:31.186Z,941.9
2018-12-10T13:59:38.019Z,941.9
2018-12-10T14:02:43.937Z,941.9
2018-12-10T14:05:50.921Z,942
2018-12-10T14:08:57.127Z,942
2018-12-10T14:12:03.296Z,942.1
2018-12-10T14:15:09.434Z,942.1
2018-12-10T14:18:15.629Z,942.2
2018-12-10T14:21:21.734Z,942.2
2018-12-10T14:24:29.754Z,942.1
2018-12-10T14:27:35.834Z,942.2
2018-12-10T14:30:41.800Z,942.2
2018-12-10T14:33:47.728Z,942.3
2018-12-10T14:36:53.647Z,942.2
2018-12-10T14:39:59.711Z,942.3
2018-12-10T14:43:05.668Z,942.3
2018-12-10T14:46:12.709Z,942.2
2018-12-10T14:49:18.581Z,942.2
2018-12-10T14:52:24.949Z,942.3
2018-12-10T14:55:30.894Z,942.2
2018-12-10T14:58:36.852Z,942.2
2018-12-10T15:01:42.812Z,942.3
2018-12-10T15:04:48.768Z,942.3
2018-12-10T15:07:54.835Z,942.3
2018-12-10T15:11:00.836Z,942.3
2018-12-10T15:14:09.247Z,942.3
2018-12-10T15:17:16.399Z,942.4
2018-12-10T15:20:22.279Z,942.4
2018-12-10T15:23:28.417Z,942.4
2018-12-10T15:26:34.467Z,942.5
2018-12-10T15:29:40.428Z,942.5
2018-12-10T15:32:46.676Z,942.6
2018-12-10T15:35:52.581Z,942.6
2018-12-10T15:38:58.517Z,942.6
2018-12-10T15:42:04.574Z,942.5
2018-12-10T15:45:10.532Z,942.6
2018-12-10T15:48:16.697Z,942.6
2018-12-10T15:51:22.597Z,942.7
2018-12-10T15:54:29.594Z,942.7
2018-12-10T15:57:35.477Z,942.7
2018-12-10T16:00:41.557Z,942.6
2018-12-10T16:03:50.386Z,942.7
2018-12-10T16:06:56.344Z,942.8
2018-12-10T16:10:02.305Z,942.9
2018-12-10T16:13:08.322Z,942.8
2018-12-10T16:16:14.321Z,942.9
2018-12-10T16:19:20.490Z,942.9
2018-12-10T16:22:26.404Z,942.9
2018-12-10T16:25:32.645Z,942.9
2018-12-10T16:28:38.577Z,942.9
2018-12-10T16:31:44.514Z,942.9
2018-12-10T16:34:50.607Z,942.9
2018-12-10T16:37:56.489Z,943
2018-12-10T16:41:02.411Z,943.1
2018-12-10T16:44:08.283Z,943
2018-12-10T16:47:14.228Z,943
2018-12-10T16:50:20.186Z,943
2018-12-10T16:53:26.088Z,943
2018-12-10T16:56:32.102Z,943
2018-12-10T16:59:37.979Z,943.1
2018-12-10T17:02:44.100Z,943.1
2018-12-10T17:05:50.190Z,943
2018-12-10T17:08:56.255Z,943
2018-12-10T17:12:02.208Z,943
2018-12-10T17:15:08.279Z,943
2018-12-10T17:18:14.233Z,943
2018-12-10T17:21:20.192Z,943.1
2018-12-10T17:24:26.154Z,943.1
2018-12-10T17:27:32.213Z,943.2
2018-12-10T17:30:38.168Z,943.1
2018-12-10T17:33:44.331Z,943.1
2018-12-10T17:36:50.219Z,943.2
2018-12-10T17:39:56.252Z,943.2
2018-12-10T17:43:02.217Z,943.2
2018-12-10T17:46:08.169Z,943.2
2018-12-10T17:49:14.069Z,943.3
2018-12-10T17:52:20.101Z,943.3
2018-12-10T17:55:26.055Z,943.3
2018-12-10T17:58:32.028Z,943.4
2018-12-10T18:01:37.965Z,943.4
2018-12-10T18:04:44.043Z,943.5
2018-12-10T18:07:49.994Z,943.5
2018-12-10T18:10:56.010Z,943.5
2018-12-10T18:14:02.112Z,943.5
2018-12-10T18:17:08.183Z,943.6
2018-12-10T18:20:14.094Z,943.6
2018-12-10T18:23:20.195Z,943.6
2018-12-10T18:26:26.264Z,943.7
2018-12-10T18:29:32.426Z,943.7
2018-12-10T18:32:38.569Z,943.7
2018-12-10T18:35:44.634Z,943.7
2018-12-10T18:38:53.464Z,943.7
2018-12-10T18:41:59.490Z,943.7
2018-12-10T18:45:05.722Z,943.7
2018-12-10T18:48:12.199Z,943.8
2018-12-10T18:51:19.449Z,943.8
2018-12-10T18:54:28.868Z,943.9
2018-12-10T18:57:35.897Z,943.9
2018-12-10T19:00:43.192Z,943.9
2018-12-10T19:03:49.994Z,944
2018-12-10T19:06:56.487Z,944
2018-12-10T19:10:03.153Z,944.1
2018-12-10T19:13:09.660Z,944.1
2018-12-10T19:16:16.763Z,944
2018-12-10T19:19:23.820Z,944
2018-12-10T19:22:31.255Z,944.2
2018-12-10T19:25:38.259Z,944.2
2018-12-10T19:28:44.706Z,944.2
2018-12-10T19:31:51.297Z,944.2
2018-12-10T19:34:57.880Z,944.2
2018-12-10T19:38:04.332Z,944.2
2018-12-10T19:41:10.917Z,944.3
2018-12-10T19:44:17.188Z,944.3
2018-12-10T19:47:23.544Z,944.3
2018-12-10T19:50:29.935Z,944.3
2018-12-10T19:53:37.000Z,944.3
2018-12-10T19:56:43.433Z,944.3
2018-12-10T19:59:49.925Z,944.2
2018-12-10T20:02:56.303Z,944.2
2018-12-10T20:06:08.906Z,944.2
2018-12-10T20:09:14.875Z,944.2
2018-12-10T20:12:21.005Z,944.1
2018-12-10T20:15:26.909Z,944.2
2018-12-10T20:18:32.956Z,944.1
2018-12-10T20:21:39.011Z,944.1
2018-12-10T20:24:45.059Z,944
2018-12-10T20:27:53.855Z,944
2018-12-10T20:30:59.879Z,943.9
2018-12-10T20:34:06.026Z,944
2018-12-10T20:37:12.023Z,944
2018-12-10T20:40:18.061Z,944.1
2018-12-10T20:43:24.218Z,944.1
2018-12-10T20:46:30.126Z,944.2
2018-12-10T20:49:36.129Z,944.2
2018-12-10T20:52:42.128Z,944.2
2018-12-10T20:55:48.368Z,944.2
2018-12-10T20:58:54.457Z,944.3
2018-12-10T21:02:00.483Z,944.2
2018-12-10T21:05:06.437Z,944.4
2018-12-10T21:08:12.311Z,944.4
2018-12-10T21:11:18.560Z,944.4
2018-12-10T21:14:24.460Z,944.4
2018-12-10T21:17:30.380Z,944.5
2018-12-10T21:20:36.348Z,944.5
2018-12-10T21:23:42.294Z,944.4
2018-12-10T21:26:48.257Z,944.4
2018-12-10T21:29:54.222Z,944.6
2018-12-10T21:33:00.284Z,944.6
2018-12-10T21:36:06.297Z,944.6
2018-12-10T21:39:12.135Z,944.6
2018-12-10T21:42:18.162Z,944.6
2018-12-10T21:45:24.250Z,944.6
2018-12-10T21:48:30.311Z,944.6
2018-12-10T21:51:36.242Z,944.6
2018-12-10T21:54:42.120Z,944.6
2018-12-10T21:57:48.160Z,944.6
2018-12-10T22:00:54.048Z,944.6
2018-12-10T22:03:59.976Z,944.7
2018-12-10T22:07:06.032Z,944.6
2018-12-10T22:10:11.930Z,944.6
2018-12-10T22:13:17.853Z,944.6
2018-12-10T22:16:23.723Z,944.6
2018-12-10T22:19:29.782Z,944.6
2018-12-10T22:22:35.830Z,944.7
2018-12-10T22:25:41.713Z,944.7
2018-12-10T22:28:47.748Z,944.6
2018-12-10T22:31:53.708Z,944.7
2018-12-10T22:34:59.594Z,944.7
2018-12-10T22:38:05.629Z,944.6
2018-12-10T22:41:11.511Z,944.6
2018-12-10T22:44:17.575Z,944.6
2018-12-10T22:47:23.524Z,944.6
2018-12-10T22:50:30.405Z,944.7
2018-12-10T22:53:36.456Z,944.6
2018-12-10T22:56:42.413Z,944.6
2018-12-10T22:59:48.299Z,944.6
2018-12-10T23:02:54.334Z,944.6
2018-12-10T23:06:00.287Z,944.6
2018-12-10T23:09:06.161Z,944.6
2018-12-10T23:12:12.120Z,944.7
2018-12-10T23:15:18.195Z,944.6
2018-12-10T23:18:24.047Z,944.7
2018-12-10T23:21:29.997Z,944.6
2018-12-10T23:24:36.059Z,944.6
2018-12-10T23:27:41.925Z,944.7
2018-12-10T23:30:47.867Z,944.7
2018-12-10T23:33:53.819Z,944.7
2018-12-10T23:36:59.890Z,944.8
2018-12-10T23:40:05.853Z,944.7
2018-12-10T23:43:11.803Z,944.7
2018-12-10T23:46:17.698Z,944.8
2018-12-10T23:49:23.732Z,944.7
2018-12-10T23:52:29.690Z,944.8
2018-12-10T23:55:35.646Z,944.8
2018-12-10T23:58:41.625Z,944.8
